Terminal Aerodrome Forecast
Issued by NWS

Home | Current Version | Previous Version | Graphics & Text | Print | Product List | Glossary Off
Versions: 1 2 3 4 5 6 7 8 9 10 11 12 13 14

000
FTUS43 KICT 301200 AAA
TAFCNU
TAF AMD
KCNU 301227Z 3012/0112 VRB05KT P6SM BKN250
     FM301400 18010KT P6SM SCT250
     FM301700 19012KT P6SM SCT060
     FM010800 18014KT P6SM VCSH BKN080=

USA.gov is the U.S. government's official web portal to all federal, state and local government web resources and services.